sensor_id;sensor_type;location;lat;lon;timestamp;pressure;altitude;pressure_sealevel;temperature;humidity
12759;BME280;20944;47.048;15.390;2024-03-23T00:55:52;97070.94;;;10.89;90.14
12759;BME280;20944;47.048;15.390;2024-03-23T00:58:18;97077.03;;;10.90;88.26
12759;BME280;20944;47.048;15.390;2024-03-23T01:00:45;97069.28;;;10.87;90.26
12759;BME280;20944;47.048;15.390;2024-03-23T01:03:12;97084.34;;;10.82;92.50
12759;BME280;20944;47.048;15.390;2024-03-23T01:05:38;97062.84;;;10.72;91.26
12759;BME280;20944;47.048;15.390;2024-03-23T01:08:06;97079.50;;;10.71;88.57
12759;BME280;20944;47.048;15.390;2024-03-23T01:10:32;97078.31;;;10.56;89.35
12759;BME280;20944;47.048;15.390;2024-03-23T01:13:01;97072.91;;;10.36;91.43
12759;BME280;20944;47.048;15.390;2024-03-23T01:15:27;97069.56;;;10.32;91.10
12759;BME280;20944;47.048;15.390;2024-03-23T01:17:54;97058.16;;;10.33;92.26
12759;BME280;20944;47.048;15.390;2024-03-23T01:20:20;96960.28;;;9.89;90.90
12759;BME280;20944;47.048;15.390;2024-03-23T01:22:48;97064.28;;;10.57;90.73
12759;BME280;20944;47.048;15.390;2024-03-23T01:25:14;97055.97;;;10.46;90.78
12759;BME280;20944;47.048;15.390;2024-03-23T01:27:41;97041.38;;;10.39;91.60
12759;BME280;20944;47.048;15.390;2024-03-23T01:30:09;97060.72;;;10.35;92.06
12759;BME280;20944;47.048;15.390;2024-03-23T01:32:36;97049.63;;;10.28;92.62
12759;BME280;20944;47.048;15.390;2024-03-23T01:35:03;97012.00;;;10.06;92.19
12759;BME280;20944;47.048;15.390;2024-03-23T01:37:30;97038.59;;;10.18;92.34
12759;BME280;20944;47.048;15.390;2024-03-23T01:39:56;97050.63;;;10.24;92.15
12759;BME280;20944;47.048;15.390;2024-03-23T01:42:23;97053.25;;;10.24;91.41
12759;BME280;20944;47.048;15.390;2024-03-23T01:44:49;97001.84;;;9.96;92.22
12759;BME280;20944;47.048;15.390;2024-03-23T01:47:18;97029.00;;;10.19;91.46
12759;BME280;20944;47.048;15.390;2024-03-23T01:49:44;97032.16;;;10.29;91.67
12759;BME280;20944;47.048;15.390;2024-03-23T01:52:11;97035.56;;;10.31;93.14
12759;BME280;20944;47.048;15.390;2024-03-23T01:54:38;97031.84;;;10.36;92.41
12759;BME280;20944;47.048;15.390;2024-03-23T01:57:06;97030.16;;;10.35;91.42
12759;BME280;20944;47.048;15.390;2024-03-23T01:59:32;97025.28;;;10.26;92.49
12759;BME280;20944;47.048;15.390;2024-03-23T02:01:59;97027.31;;;10.16;93.46
12759;BME280;20944;47.048;15.390;2024-03-23T02:04:27;97006.44;;;9.90;93.83
12759;BME280;20944;47.048;15.390;2024-03-23T02:06:54;97019.09;;;10.02;93.50
12759;BME280;20944;47.048;15.390;2024-03-23T02:09:20;96961.06;;;9.66;94.12
12759;BME280;20944;47.048;15.390;2024-03-23T02:11:47;97003.78;;;9.91;94.39
12759;BME280;20944;47.048;15.390;2024-03-23T02:14:13;96990.00;;;9.86;95.21
12759;BME280;20944;47.048;15.390;2024-03-23T02:16:40;97001.75;;;9.99;94.83
12759;BME280;20944;47.048;15.390;2024-03-23T02:19:07;96991.97;;;10.05;94.80
12759;BME280;20944;47.048;15.390;2024-03-23T02:21:35;96985.94;;;10.03;94.12
12759;BME280;20944;47.048;15.390;2024-03-23T02:24:03;96987.53;;;10.07;94.19
12759;BME280;20944;47.048;15.390;2024-03-23T02:26:30;96982.75;;;9.94;95.03
12759;BME280;20944;47.048;15.390;2024-03-23T02:28:56;96954.69;;;9.75;95.86
12759;BME280;20944;47.048;15.390;2024-03-23T02:31:24;96794.09;;;8.82;96.47
12759;BME280;20944;47.048;15.390;2024-03-23T02:33:50;96931.66;;;9.59;96.44
12759;BME280;20944;47.048;15.390;2024-03-23T02:36:18;96971.00;;;9.81;96.27
12759;BME280;20944;47.048;15.390;2024-03-23T02:38:46;96970.69;;;9.65;96.61
12759;BME280;20944;47.048;15.390;2024-03-23T02:41:15;96940.00;;;9.45;98.46
12759;BME280;20944;47.048;15.390;2024-03-23T02:43:48;96989.13;;;9.61;97.22
12759;BME280;20944;47.048;15.390;2024-03-23T02:46:16;96968.63;;;9.49;98.33
12759;BME280;20944;47.048;15.390;2024-03-23T02:48:42;96966.22;;;9.42;99.11
12759;BME280;20944;47.048;15.390;2024-03-23T02:51:09;96967.91;;;9.45;99.92
12759;BME280;20944;47.048;15.390;2024-03-23T02:53:35;96927.09;;;9.14;100.00
12759;BME280;20944;47.048;15.390;2024-03-23T02:56:03;96952.44;;;9.39;99.79
12759;BME280;20944;47.048;15.390;2024-03-23T02:58:31;96958.03;;;9.53;98.32
12759;BME280;20944;47.048;15.390;2024-03-23T03:00:58;96942.66;;;9.44;97.31
12759;BME280;20944;47.048;15.390;2024-03-23T03:03:24;96936.16;;;9.31;97.54
12759;BME280;20944;47.048;15.390;2024-03-23T03:05:55;96911.78;;;9.04;98.78
12759;BME280;20944;47.048;15.390;2024-03-23T03:08:21;96942.47;;;9.24;99.39
12759;BME280;20944;47.048;15.390;2024-03-23T03:10:48;96951.41;;;9.16;99.42
12759;BME280;20944;47.048;15.390;2024-03-23T03:13:14;96955.06;;;9.12;100.00
12759;BME280;20944;47.048;15.390;2024-03-23T03:15:43;96931.84;;;9.03;100.00
12759;BME280;20944;47.048;15.390;2024-03-23T03:18:09;96920.25;;;9.10;99.92
12759;BME280;20944;47.048;15.390;2024-03-23T03:20:38;96922.28;;;9.02;100.00
12759;BME280;20944;47.048;15.390;2024-03-23T03:23:05;96902.38;;;8.98;99.69
12759;BME280;20944;47.048;15.390;2024-03-23T03:25:32;96930.72;;;9.10;98.71
12759;BME280;20944;47.048;15.390;2024-03-23T03:27:58;96930.72;;;8.84;100.00
12759;BME280;20944;47.048;15.390;2024-03-23T03:30:25;96928.56;;;8.70;100.00
12759;BME280;20944;47.048;15.390;2024-03-23T03:32:53;96940.91;;;8.65;100.00
12759;BME280;20944;47.048;15.390;2024-03-23T03:35:21;96937.63;;;8.58;100.00
12759;BME280;20944;47.048;15.390;2024-03-23T03:37:47;96928.34;;;8.50;100.00
12759;BME280;20944;47.048;15.390;2024-03-23T03:40:14;96888.72;;;8.37;100.00
12759;BME280;20944;47.048;15.390;2024-03-23T03:42:40;96932.22;;;8.64;100.00
12759;BME280;20944;47.048;15.390;2024-03-23T03:45:08;96928.69;;;8.65;100.00
12759;BME280;20944;47.048;15.390;2024-03-23T03:47:34;96918.75;;;8.50;100.00
12759;BME280;20944;47.048;15.390;2024-03-23T03:50:03;96916.28;;;8.46;100.00
12759;BME280;20944;47.048;15.390;2024-03-23T03:52:29;96921.22;;;8.55;100.00
12759;BME280;20944;47.048;15.390;2024-03-23T03:55:02;96921.81;;;8.63;100.00
12759;BME280;20944;47.048;15.390;2024-03-23T03:57:29;96911.84;;;8.76;100.00
12759;BME280;20944;47.048;15.390;2024-03-23T03:59:56;96915.06;;;8.84;100.00
12759;BME280;20944;47.048;15.390;2024-03-23T04:02:22;96918.31;;;8.90;100.00
12759;BME280;20944;47.048;15.390;2024-03-23T04:04:49;96922.75;;;8.88;100.00
12759;BME280;20944;47.048;15.390;2024-03-23T04:07:16;96914.31;;;8.80;100.00
12759;BME280;20944;47.048;15.390;2024-03-23T04:09:44;96913.41;;;8.81;100.00
12759;BME280;20944;47.048;15.390;2024-03-23T04:12:10;96895.22;;;8.78;100.00
12759;BME280;20944;47.048;15.390;2024-03-23T04:14:37;96902.97;;;8.80;100.00
12759;BME280;20944;47.048;15.390;2024-03-23T04:17:03;96885.91;;;8.70;100.00
12759;BME280;20944;47.048;15.390;2024-03-23T04:19:30;96885.88;;;8.71;100.00
12759;BME280;20944;47.048;15.390;2024-03-23T04:21:57;96885.00;;;8.71;100.00
12759;BME280;20944;47.048;15.390;2024-03-23T04:24:25;96886.66;;;8.73;100.00
12759;BME280;20944;47.048;15.390;2024-03-23T04:26:52;96866.72;;;8.71;100.00
12759;BME280;20944;47.048;15.390;2024-03-23T04:29:19;96885.31;;;8.88;100.00
12759;BME280;20944;47.048;15.390;2024-03-23T04:31:45;96863.06;;;8.76;100.00
12759;BME280;20944;47.048;15.390;2024-03-23T04:34:13;96886.97;;;8.90;100.00
12759;BME280;20944;47.048;15.390;2024-03-23T04:36:39;96866.66;;;8.74;100.00
12759;BME280;20944;47.048;15.390;2024-03-23T04:39:07;96872.94;;;8.68;100.00
12759;BME280;20944;47.048;15.390;2024-03-23T04:41:36;96860.91;;;8.62;100.00
12759;BME280;20944;47.048;15.390;2024-03-23T04:44:04;96867.97;;;8.59;100.00
12759;BME280;20944;47.048;15.390;2024-03-23T04:46:31;96882.06;;;8.55;100.00
12759;BME280;20944;47.048;15.390;2024-03-23T04:48:57;96886.66;;;8.47;100.00
12759;BME280;20944;47.048;15.390;2024-03-23T04:51:24;96866.84;;;8.40;100.00
12759;BME280;20944;47.048;15.390;2024-03-23T04:53:51;96817.28;;;8.11;100.00
12759;BME280;20944;47.048;15.390;2024-03-23T04:56:19;96704.31;;;7.25;100.00
12759;BME280;20944;47.048;15.390;2024-03-23T04:58:48;96879.34;;;8.28;100.00
12759;BME280;20944;47.048;15.390;2024-03-23T05:01:14;96876.00;;;8.25;100.00
12759;BME280;20944;47.048;15.390;2024-03-23T05:03:41;96841.59;;;8.12;100.00
12759;BME280;20944;47.048;15.390;2024-03-23T05:06:07;96858.19;;;8.39;100.00
12759;BME280;20944;47.048;15.390;2024-03-23T05:08:34;96867.44;;;8.49;100.00
12759;BME280;20944;47.048;15.390;2024-03-23T05:11:00;96854.53;;;8.45;100.00
12759;BME280;20944;47.048;15.390;2024-03-23T05:13:28;96856.59;;;8.61;100.00
12759;BME280;20944;47.048;15.390;2024-03-23T05:15:56;96862.22;;;8.76;100.00
12759;BME280;20944;47.048;15.390;2024-03-23T05:18:23;96849.94;;;8.78;100.00
12759;BME280;20944;47.048;15.390;2024-03-23T05:20:55;96805.97;;;8.65;100.00
12759;BME280;20944;47.048;15.390;2024-03-23T05:23:23;96854.69;;;8.93;100.00
12759;BME280;20944;47.048;15.390;2024-03-23T05:25:49;96766.34;;;8.53;100.00
12759;BME280;20944;47.048;15.390;2024-03-23T05:28:17;96842.84;;;9.08;100.00
12759;BME280;20944;47.048;15.390;2024-03-23T05:30:43;96803.31;;;8.92;100.00
12759;BME280;20944;47.048;15.390;2024-03-23T05:33:12;96844.03;;;9.24;100.00
12759;BME280;20944;47.048;15.390;2024-03-23T05:35:39;96799.59;;;8.99;100.00
12759;BME280;20944;47.048;15.390;2024-03-23T05:38:06;96831.91;;;9.22;100.00
12759;BME280;20944;47.048;15.390;2024-03-23T05:40:32;96808.72;;;9.12;100.00
12759;BME280;20944;47.048;15.390;2024-03-23T05:43:03;96835.69;;;9.38;100.00
12759;BME280;20944;47.048;15.390;2024-03-23T05:45:29;96837.16;;;9.45;100.00
12759;BME280;20944;47.048;15.390;2024-03-23T05:47:56;96828.97;;;9.54;100.00
12759;BME280;20944;47.048;15.390;2024-03-23T05:50:24;96825.06;;;9.66;100.00
12759;BME280;20944;47.048;15.390;2024-03-23T05:52:51;96814.09;;;9.56;100.00
12759;BME280;20944;47.048;15.390;2024-03-23T05:55:18;96826.88;;;9.64;100.00
12759;BME280;20944;47.048;15.390;2024-03-23T05:57:45;96828.53;;;9.66;100.00
12759;BME280;20944;47.048;15.390;2024-03-23T06:00:11;96815.41;;;9.68;100.00
12759;BME280;20944;47.048;15.390;2024-03-23T06:02:42;96839.81;;;9.68;100.00
12759;BME280;20944;47.048;15.390;2024-03-23T06:05:11;96822.34;;;9.69;100.00
12759;BME280;20944;47.048;15.390;2024-03-23T06:07:39;96831.50;;;9.81;100.00
12759;BME280;20944;47.048;15.390;2024-03-23T06:10:07;96817.91;;;9.71;100.00
12759;BME280;20944;47.048;15.390;2024-03-23T06:12:34;96830.00;;;9.73;100.00
12759;BME280;20944;47.048;15.390;2024-03-23T06:15:01;96774.81;;;9.58;100.00
12759;BME280;20944;47.048;15.390;2024-03-23T06:17:27;96815.31;;;9.93;100.00
12759;BME280;20944;47.048;15.390;2024-03-23T06:19:54;96823.28;;;10.12;100.00
12759;BME280;20944;47.048;15.390;2024-03-23T06:22:21;96776.25;;;10.10;100.00
12759;BME280;20944;47.048;15.390;2024-03-23T06:24:49;96805.31;;;10.48;98.01
12759;BME280;20944;47.048;15.390;2024-03-23T06:27:15;96806.91;;;10.52;97.25
12759;BME280;20944;47.048;15.390;2024-03-23T06:29:42;96769.41;;;10.30;97.70
12759;BME280;20944;47.048;15.390;2024-03-23T06:32:09;96782.66;;;10.47;97.53
12759;BME280;20944;47.048;15.390;2024-03-23T06:34:36;96802.59;;;10.71;97.45
12759;BME280;20944;47.048;15.390;2024-03-23T06:37:02;96796.00;;;10.83;96.34
12759;BME280;20944;47.048;15.390;2024-03-23T06:39:29;96797.28;;;10.93;94.83
12759;BME280;20944;47.048;15.390;2024-03-23T06:41:57;96793.19;;;11.08;97.09
12759;BME280;20944;47.048;15.390;2024-03-23T06:44:24;96800.56;;;10.98;96.05
12759;BME280;20944;47.048;15.390;2024-03-23T06:46:50;96787.41;;;10.79;98.20
12759;BME280;20944;47.048;15.390;2024-03-23T06:49:17;96793.72;;;10.75;97.63
12759;BME280;20944;47.048;15.390;2024-03-23T06:51:45;96801.81;;;10.69;98.42
12759;BME280;20944;47.048;15.390;2024-03-23T06:54:12;96801.16;;;10.64;100.00
12759;BME280;20944;47.048;15.390;2024-03-23T06:56:38;96801.94;;;10.66;100.00
12759;BME280;20944;47.048;15.390;2024-03-23T06:59:07;96796.44;;;10.72;97.88
12759;BME280;20944;47.048;15.390;2024-03-23T07:01:33;96776.50;;;10.68;97.17
12759;BME280;20944;47.048;15.390;2024-03-23T07:04:01;96776.41;;;10.71;97.91
12759;BME280;20944;47.048;15.390;2024-03-23T07:06:27;96786.28;;;10.85;97.06
12759;BME280;20944;47.048;15.390;2024-03-23T07:08:54;96787.03;;;10.89;97.28
12759;BME280;20944;47.048;15.390;2024-03-23T07:11:20;96797.28;;;10.93;96.68
12759;BME280;20944;47.048;15.390;2024-03-23T07:13:49;96790.91;;;11.00;95.05
12759;BME280;20944;47.048;15.390;2024-03-23T07:16:17;96728.75;;;10.62;94.15
12759;BME280;20944;47.048;15.390;2024-03-23T07:18:45;96787.00;;;11.09;94.56
12759;BME280;20944;47.048;15.390;2024-03-23T07:21:11;96784.13;;;11.15;94.27
12759;BME280;20944;47.048;15.390;2024-03-23T07:23:39;96770.94;;;11.17;94.91
12759;BME280;20944;47.048;15.390;2024-03-23T07:26:07;96778.66;;;11.40;96.82
12759;BME280;20944;47.048;15.390;2024-03-23T07:28:35;96778.72;;;11.39;99.87
12759;BME280;20944;47.048;15.390;2024-03-23T07:31:03;96781.19;;;11.42;98.05
12759;BME280;20944;47.048;15.390;2024-03-23T07:33:32;96781.97;;;11.44;96.06
12759;BME280;20944;47.048;15.390;2024-03-23T07:35:58;96784.09;;;11.35;95.63
12759;BME280;20944;47.048;15.390;2024-03-23T07:38:26;96716.84;;;10.95;98.10
12759;BME280;20944;47.048;15.390;2024-03-23T07:41:03;96774.31;;;11.39;95.59
12759;BME280;20944;47.048;15.390;2024-03-23T07:43:30;96740.69;;;11.28;96.24
12759;BME280;20944;47.048;15.390;2024-03-23T07:45:56;96776.41;;;11.51;96.19
12759;BME280;20944;47.048;15.390;2024-03-23T07:48:23;96775.28;;;11.57;96.04
12759;BME280;20944;47.048;15.390;2024-03-23T07:50:58;96777.34;;;11.69;95.73
12759;BME280;20944;47.048;15.390;2024-03-23T07:53:26;96775.59;;;11.68;93.59
12759;BME280;20944;47.048;15.390;2024-03-23T07:55:56;96761.34;;;11.55;95.84
12759;BME280;20944;47.048;15.390;2024-03-23T07:58:23;96776.16;;;11.56;96.35
12759;BME280;20944;47.048;15.390;2024-03-23T08:00:50;96726.59;;;11.50;95.41
12759;BME280;20944;47.048;15.390;2024-03-23T08:03:17;96768.94;;;11.80;94.35
12759;BME280;20944;47.048;15.390;2024-03-23T08:05:43;96730.88;;;11.71;94.00
12759;BME280;20944;47.048;15.390;2024-03-23T08:08:12;96761.00;;;12.00;91.09
12759;BME280;20944;47.048;15.390;2024-03-23T08:10:47;96760.31;;;11.97;92.20
12759;BME280;20944;47.048;15.390;2024-03-23T08:13:14;96754.06;;;11.99;91.96
12759;BME280;20944;47.048;15.390;2024-03-23T08:15:40;96734.00;;;11.98;90.96
12759;BME280;20944;47.048;15.390;2024-03-23T08:18:08;96739.41;;;12.12;90.62
12759;BME280;20944;47.048;15.390;2024-03-23T08:20:34;96748.06;;;12.33;87.58
12759;BME280;20944;47.048;15.390;2024-03-23T08:23:01;96747.88;;;12.36;86.45
12759;BME280;20944;47.048;15.390;2024-03-23T08:25:30;96737.88;;;12.45;86.51
12759;BME280;20944;47.048;15.390;2024-03-23T08:27:58;96707.19;;;12.28;86.18
12759;BME280;20944;47.048;15.390;2024-03-23T08:30:24;96736.91;;;12.63;88.05
12759;BME280;20944;47.048;15.390;2024-03-23T08:32:51;96716.22;;;12.57;85.94
12759;BME280;20944;47.048;15.390;2024-03-23T08:35:18;96733.94;;;12.71;88.42
12759;BME280;20944;47.048;15.390;2024-03-23T08:37:45;96726.63;;;12.76;88.05
12759;BME280;20944;47.048;15.390;2024-03-23T08:40:12;96729.13;;;12.79;87.51
12759;BME280;20944;47.048;15.390;2024-03-23T08:42:41;96713.34;;;12.79;86.06
12759;BME280;20944;47.048;15.390;2024-03-23T08:45:07;96726.94;;;12.87;87.30
12759;BME280;20944;47.048;15.390;2024-03-23T08:47:35;96697.44;;;12.64;85.98
12759;BME280;20944;47.048;15.390;2024-03-23T08:50:01;96714.50;;;12.73;86.45
12759;BME280;20944;47.048;15.390;2024-03-23T08:52:28;96716.50;;;12.85;85.85
12759;BME280;20944;47.048;15.390;2024-03-23T08:54:55;96698.59;;;12.76;84.45
12759;BME280;20944;47.048;15.390;2024-03-23T08:57:23;96704.22;;;13.19;85.42
12759;BME280;20944;47.048;15.390;2024-03-23T08:59:50;96690.28;;;13.34;82.95
12759;BME280;20944;47.048;15.390;2024-03-23T09:02:17;96695.81;;;13.61;81.45
12759;BME280;20944;47.048;15.390;2024-03-23T09:04:44;96683.53;;;13.77;83.86
12759;BME280;20944;47.048;15.390;2024-03-23T09:07:11;96626.34;;;13.64;79.66
12759;BME280;20944;47.048;15.390;2024-03-23T09:09:38;96664.38;;;14.06;75.99
12759;BME280;20944;47.048;15.390;2024-03-23T09:12:06;96670.00;;;14.29;74.64
12759;BME280;20944;47.048;15.390;2024-03-23T09:14:33;96656.06;;;14.57;74.65
12759;BME280;20944;47.048;15.390;2024-03-23T09:17:02;96652.91;;;14.95;71.54
12759;BME280;20944;47.048;15.390;2024-03-23T09:19:28;96610.81;;;15.08;69.30
12759;BME280;20944;47.048;15.390;2024-03-23T09:21:56;96639.31;;;15.44;66.63
12759;BME280;20944;47.048;15.390;2024-03-23T09:24:22;96601.53;;;15.44;65.95
12759;BME280;20944;47.048;15.390;2024-03-23T09:26:51;96636.41;;;15.90;65.20
12759;BME280;20944;47.048;15.390;2024-03-23T09:29:17;96615.09;;;15.93;64.36
12759;BME280;20944;47.048;15.390;2024-03-23T09:31:45;96614.47;;;16.02;64.33
12759;BME280;20944;47.048;15.390;2024-03-23T09:34:12;96554.69;;;15.74;62.69
12759;BME280;20944;47.048;15.390;2024-03-23T09:36:39;96624.78;;;16.19;62.27
12759;BME280;20944;47.048;15.390;2024-03-23T09:39:06;96625.19;;;16.13;62.90
12759;BME280;20944;47.048;15.390;2024-03-23T09:41:35;96613.31;;;16.06;61.92
12759;BME280;20944;47.048;15.390;2024-03-23T09:44:01;96605.78;;;16.00;62.04
12759;BME280;20944;47.048;15.390;2024-03-23T09:46:28;96614.69;;;15.99;62.67
12759;BME280;20944;47.048;15.390;2024-03-23T09:49:00;96613.28;;;15.94;63.23
12759;BME280;20944;47.048;15.390;2024-03-23T09:51:31;96595.28;;;15.86;64.25
12759;BME280;20944;47.048;15.390;2024-03-23T09:53:57;96613.25;;;15.81;63.16
12759;BME280;20944;47.048;15.390;2024-03-23T09:56:24;96607.69;;;15.71;64.20
12759;BME280;20944;47.048;15.390;2024-03-23T09:58:50;96601.78;;;15.68;65.71
12759;BME280;20944;47.048;15.390;2024-03-23T10:01:18;96603.28;;;15.72;65.62
12759;BME280;20944;47.048;15.390;2024-03-23T10:03:45;96544.63;;;15.52;67.85
12759;BME280;20944;47.048;15.390;2024-03-23T10:06:12;96589.25;;;16.11;67.82
12759;BME280;20944;47.048;15.390;2024-03-23T10:08:40;96579.66;;;16.35;67.51
12759;BME280;20944;47.048;15.390;2024-03-23T10:11:13;96575.78;;;16.66;68.15
12759;BME280;20944;47.048;15.390;2024-03-23T10:13:42;96571.09;;;16.95;67.55
12759;BME280;20944;47.048;15.390;2024-03-23T10:16:10;96498.81;;;16.69;62.97
12759;BME280;20944;47.048;15.390;2024-03-23T10:18:39;96564.38;;;17.15;64.29
12759;BME280;20944;47.048;15.390;2024-03-23T10:21:08;96540.97;;;17.22;65.70
12759;BME280;20944;47.048;15.390;2024-03-23T10:23:34;96552.63;;;17.56;62.48
12759;BME280;20944;47.048;15.390;2024-03-23T10:26:17;96523.00;;;17.75;62.89
12759;BME280;20944;47.048;15.390;2024-03-23T10:28:51;96543.81;;;17.92;61.51
12759;BME280;20944;47.048;15.390;2024-03-23T10:31:19;96531.47;;;17.91;62.97
12759;BME280;20944;47.048;15.390;2024-03-23T10:33:46;96533.53;;;17.88;61.99
12759;BME280;20944;47.048;15.390;2024-03-23T10:36:13;96539.28;;;17.82;62.24
12759;BME280;20944;47.048;15.390;2024-03-23T10:38:40;96540.91;;;17.71;59.87
12759;BME280;20944;47.048;15.390;2024-03-23T10:41:09;96531.19;;;17.59;59.78
12759;BME280;20944;47.048;15.390;2024-03-23T10:43:37;96520.38;;;17.62;61.98
12759;BME280;20944;47.048;15.390;2024-03-23T10:46:04;96526.50;;;17.75;60.86
12759;BME280;20944;47.048;15.390;2024-03-23T10:48:32;96497.97;;;17.79;59.56
12759;BME280;20944;47.048;15.390;2024-03-23T10:51:00;96510.69;;;17.98;61.67
12759;BME280;20944;47.048;15.390;2024-03-23T10:53:28;96503.00;;;18.06;59.28
12759;BME280;20944;47.048;15.390;2024-03-23T10:55:56;96498.66;;;18.16;58.78
12759;BME280;20944;47.048;15.390;2024-03-23T10:58:26;96500.75;;;18.24;59.11
12759;BME280;20944;47.048;15.390;2024-03-23T11:00:55;96501.13;;;18.30;57.63
12759;BME280;20944;47.048;15.390;2024-03-23T11:03:35;96472.91;;;18.29;55.27
12759;BME280;20944;47.048;15.390;2024-03-23T11:06:03;96484.63;;;18.49;53.68
12759;BME280;20944;47.048;15.390;2024-03-23T11:08:35;96462.66;;;18.47;52.17
12759;BME280;20944;47.048;15.390;2024-03-23T11:11:15;96456.16;;;18.63;52.40
12759;BME280;20944;47.048;15.390;2024-03-23T11:13:44;96449.31;;;18.71;52.23
12759;BME280;20944;47.048;15.390;2024-03-23T11:16:16;96434.97;;;18.74;49.05
12759;BME280;20944;47.048;15.390;2024-03-23T11:18:44;96442.78;;;18.75;49.00
12759;BME280;20944;47.048;15.390;2024-03-23T11:21:10;96417.91;;;18.54;50.06
12759;BME280;20944;47.048;15.390;2024-03-23T11:23:38;96392.47;;;18.40;50.79
12759;BME280;20944;47.048;15.390;2024-03-23T11:26:07;96425.69;;;18.68;52.54
12759;BME280;20944;47.048;15.390;2024-03-23T11:28:35;96342.72;;;18.32;52.24
12759;BME280;20944;47.048;15.390;2024-03-23T11:31:01;96402.47;;;18.93;52.62
12759;BME280;20944;47.048;15.390;2024-03-23T11:33:29;96370.81;;;19.01;51.07
12759;BME280;20944;47.048;15.390;2024-03-23T11:35:56;96401.16;;;19.30;51.76
12759;BME280;20944;47.048;15.390;2024-03-23T11:38:23;96387.63;;;19.22;53.47
12759;BME280;20944;47.048;15.390;2024-03-23T11:40:49;96365.94;;;19.17;51.61
12759;BME280;20944;47.048;15.390;2024-03-23T11:43:18;96376.31;;;19.41;52.63
12759;BME280;20944;47.048;15.390;2024-03-23T11:45:45;96363.44;;;19.57;53.34
12759;BME280;20944;47.048;15.390;2024-03-23T11:48:14;96293.84;;;19.22;51.52
12759;BME280;20944;47.048;15.390;2024-03-23T11:50:43;96327.41;;;19.44;52.45
12759;BME280;20944;47.048;15.390;2024-03-23T11:53:15;96335.34;;;19.76;50.58
12759;BME280;20944;47.048;15.390;2024-03-23T11:55:47;96304.50;;;19.63;51.41
12759;BME280;20944;47.048;15.390;2024-03-23T11:58:15;96317.38;;;19.89;50.49
12759;BME280;20944;47.048;15.390;2024-03-23T12:00:42;96341.97;;;20.12;51.69
12759;BME280;20944;47.048;15.390;2024-03-23T12:03:10;96322.72;;;19.99;47.73
12759;BME280;20944;47.048;15.390;2024-03-23T12:05:37;96294.34;;;19.78;49.75
12759;BME280;20944;47.048;15.390;2024-03-23T12:08:23;96281.44;;;19.94;50.09
12759;BME280;20944;47.048;15.390;2024-03-23T12:10:51;96304.06;;;20.29;49.05
12759;BME280;20944;47.048;15.390;2024-03-23T12:13:20;96292.91;;;20.35;51.97
12759;BME280;20944;47.048;15.390;2024-03-23T12:15:49;96283.38;;;20.42;50.54
12759;BME280;20944;47.048;15.390;2024-03-23T12:18:16;96285.09;;;20.43;49.36
12759;BME280;20944;47.048;15.390;2024-03-23T12:20:43;96280.50;;;20.55;49.19
12759;BME280;20944;47.048;15.390;2024-03-23T12:23:11;96288.50;;;20.65;51.29
12759;BME280;20944;47.048;15.390;2024-03-23T12:25:39;96279.97;;;20.71;50.97
12759;BME280;20944;47.048;15.390;2024-03-23T12:28:07;96268.38;;;20.82;50.30
12759;BME280;20944;47.048;15.390;2024-03-23T12:30:34;96261.91;;;21.04;49.82
12759;BME280;20944;47.048;15.390;2024-03-23T12:33:02;96263.03;;;21.20;48.09
12759;BME280;20944;47.048;15.390;2024-03-23T12:35:29;96259.66;;;21.38;47.05
12759;BME280;20944;47.048;15.390;2024-03-23T12:37:56;96255.97;;;21.48;47.78
12759;BME280;20944;47.048;15.390;2024-03-23T12:40:22;96228.22;;;21.41;44.65
12759;BME280;20944;47.048;15.390;2024-03-23T12:42:51;96250.47;;;21.60;43.88
12759;BME280;20944;47.048;15.390;2024-03-23T12:45:17;96246.28;;;21.57;44.55
12759;BME280;20944;47.048;15.390;2024-03-23T12:47:44;96239.28;;;21.46;43.96
12759;BME280;20944;47.048;15.390;2024-03-23T12:50:11;96239.97;;;21.48;44.35
12759;BME280;20944;47.048;15.390;2024-03-23T12:52:38;96240.19;;;21.37;44.15
12759;BME280;20944;47.048;15.390;2024-03-23T12:55:05;96170.81;;;20.90;44.95
12759;BME280;20944;47.048;15.390;2024-03-23T12:57:32;96228.91;;;21.43;45.18
12759;BME280;20944;47.048;15.390;2024-03-23T13:00:00;96222.16;;;21.59;43.53
12759;BME280;20944;47.048;15.390;2024-03-23T13:02:29;96224.06;;;21.76;43.81
12759;BME280;20944;47.048;15.390;2024-03-23T13:04:55;96205.25;;;21.68;44.03
12759;BME280;20944;47.048;15.390;2024-03-23T13:07:23;96214.91;;;22.06;44.28
12759;BME280;20944;47.048;15.390;2024-03-23T13:09:50;96221.16;;;22.24;42.93
12759;BME280;20944;47.048;15.390;2024-03-23T13:12:18;96215.63;;;22.08;41.53
12759;BME280;20944;47.048;15.390;2024-03-23T13:14:44;96208.50;;;21.99;40.39
12759;BME280;20944;47.048;15.390;2024-03-23T13:17:13;96198.78;;;22.07;39.98
12759;BME280;20944;47.048;15.390;2024-03-23T13:19:39;96172.69;;;22.47;41.12
12759;BME280;20944;47.048;15.390;2024-03-23T13:22:07;96180.16;;;22.79;40.92
12759;BME280;20944;47.048;15.390;2024-03-23T13:24:34;96186.72;;;22.49;39.75
12759;BME280;20944;47.048;15.390;2024-03-23T13:27:01;96188.00;;;22.27;39.22
12759;BME280;20944;47.048;15.390;2024-03-23T13:29:28;96185.28;;;22.54;39.89
12759;BME280;20944;47.048;15.390;2024-03-23T13:31:55;96181.16;;;22.78;40.40
12759;BME280;20944;47.048;15.390;2024-03-23T13:34:22;96181.00;;;22.44;34.88
12759;BME280;20944;47.048;15.390;2024-03-23T13:36:50;96172.25;;;22.51;38.07
12759;BME280;20944;47.048;15.390;2024-03-23T13:39:16;96171.69;;;22.48;35.17
12759;BME280;20944;47.048;15.390;2024-03-23T13:41:44;96142.00;;;22.69;35.64
12759;BME280;20944;47.048;15.390;2024-03-23T13:44:11;96163.38;;;22.86;36.57
12759;BME280;20944;47.048;15.390;2024-03-23T13:46:39;96158.19;;;23.29;34.62